Terminal Aerodrome Forecast
Issued by NWS St Louis, MO

Home | Current Version | Previous Version | Text Only | Print | Product List | Glossary On
Versions: 1 2 3 4 5 6 7 8 9 10 11 12 13 14 15 16 17 18 19 20 21 22 23 24 25 26 27 28 29 30
994
FTUS43 KLSX 191510 AAA
TAFSTL
TAF AMD
KSTL 191510Z 1915/2018 20010KT P6SM FEW250
     FM191800 20012G18KT P6SM FEW250
     FM200800 20008KT P6SM SCT035
     FM201500 21005KT P6SM BKN030=

USA.gov is the U.S. government's official web portal to all federal, state and local government web resources and services.